createdAt,value
2022-07-25T00:01:25.398Z,49.98
2022-07-25T00:03:56.932Z,49.00
2022-07-25T00:06:24.131Z,50.09
2022-07-25T00:08:50.826Z,49.72
2022-07-25T00:11:17.576Z,50.05
2022-07-25T00:13:44.244Z,50.52
2022-07-25T00:16:10.957Z,50.51
2022-07-25T00:18:37.700Z,50.53
2022-07-25T00:21:04.534Z,50.83
2022-07-25T00:23:31.201Z,50.48
2022-07-25T00:25:58.361Z,50.76
2022-07-25T00:28:25.078Z,50.58
2022-07-25T00:30:51.918Z,51.91
2022-07-25T00:33:18.660Z,52.00
2022-07-25T00:35:45.399Z,50.94
2022-07-25T00:38:12.984Z,50.80
2022-07-25T00:40:39.710Z,50.50
2022-07-25T00:43:06.352Z,51.37
2022-07-25T00:45:32.959Z,51.61
2022-07-25T00:47:59.616Z,52.23
2022-07-25T00:50:26.484Z,52.01
2022-07-25T00:52:53.157Z,51.73
2022-07-25T00:55:20.951Z,51.96
2022-07-25T00:57:47.584Z,52.29
2022-07-25T01:00:15.784Z,52.50
2022-07-25T01:02:42.672Z,52.17
2022-07-25T01:05:10.934Z,53.07
2022-07-25T01:07:39.666Z,53.58
2022-07-25T01:10:07.216Z,52.63
2022-07-25T01:12:54.874Z,51.24
2022-07-25T01:15:23.461Z,52.73
2022-07-25T01:17:50.549Z,53.09
2022-07-25T01:20:19.436Z,52.59
2022-07-25T01:22:46.539Z,52.83
2022-07-25T01:25:14.779Z,52.86
2022-07-25T01:27:42.287Z,53.77
2022-07-25T01:30:11.342Z,53.40
2022-07-25T01:32:38.460Z,52.57
2022-07-25T01:35:06.724Z,52.89
2022-07-25T01:37:33.530Z,52.59
2022-07-25T01:40:00.455Z,52.76
2022-07-25T01:42:28.082Z,52.25
2022-07-25T01:44:55.362Z,52.05
2022-07-25T01:47:22.130Z,52.97
2022-07-25T01:49:48.804Z,52.60
2022-07-25T01:52:15.689Z,54.02
2022-07-25T01:54:43.474Z,53.44
2022-07-25T01:57:11.471Z,52.78
2022-07-25T01:59:40.914Z,52.25
2022-07-25T02:02:09.307Z,52.49
2022-07-25T02:04:36.430Z,52.56
2022-07-25T02:07:04.030Z,52.82
2022-07-25T02:09:32.922Z,53.80
2022-07-25T02:11:59.598Z,53.82
2022-07-25T02:14:26.270Z,53.46
2022-07-25T02:16:52.995Z,53.94
2022-07-25T02:19:19.929Z,54.25
2022-07-25T02:21:46.581Z,54.28
2022-07-25T02:24:13.254Z,53.86
2022-07-25T02:26:40.017Z,53.91
2022-07-25T02:29:06.622Z,54.21
2022-07-25T02:31:33.274Z,54.38
2022-07-25T02:33:59.933Z,54.10
2022-07-25T02:36:26.573Z,53.93
2022-07-25T02:38:53.211Z,54.88
2022-07-25T02:41:19.842Z,54.52
2022-07-25T02:43:46.458Z,54.27
2022-07-25T02:46:13.215Z,54.21
2022-07-25T02:48:40.316Z,54.24
2022-07-25T02:51:07.009Z,54.40
2022-07-25T02:53:56.223Z,54.49
2022-07-25T02:56:21.150Z,54.57
2022-07-25T02:58:48.177Z,54.38
2022-07-25T03:01:15.204Z,54.46
2022-07-25T03:03:42.195Z,55.13
2022-07-25T03:06:09.053Z,54.84
2022-07-25T03:08:35.729Z,54.02
2022-07-25T03:11:03.201Z,54.87
2022-07-25T03:13:29.933Z,54.88
2022-07-25T03:15:56.567Z,54.85
2022-07-25T03:18:23.196Z,54.29
2022-07-25T03:20:51.027Z,54.54
2022-07-25T03:23:17.684Z,54.74
2022-07-25T03:25:44.341Z,54.21
2022-07-25T03:28:10.966Z,54.39
2022-07-25T03:30:37.621Z,54.99
2022-07-25T03:33:04.361Z,55.13
2022-07-25T03:35:31.046Z,55.53
2022-07-25T03:37:57.679Z,55.71
2022-07-25T03:40:24.377Z,56.30
2022-07-25T03:42:51.057Z,55.17
2022-07-25T03:45:17.982Z,55.23
2022-07-25T03:47:44.901Z,54.92
2022-07-25T03:50:12.208Z,55.37
2022-07-25T03:52:38.863Z,56.51
2022-07-25T03:55:10.544Z,56.36
2022-07-25T03:57:38.173Z,56.52
2022-07-25T04:00:07.484Z,55.85
2022-07-25T04:02:34.623Z,56.58
2022-07-25T04:05:01.515Z,56.72
2022-07-25T04:07:28.329Z,56.68
2022-07-25T04:09:54.944Z,56.89
2022-07-25T04:12:21.591Z,57.23
2022-07-25T04:14:48.318Z,56.77
2022-07-25T04:17:15.232Z,57.13
2022-07-25T04:19:41.951Z,57.09
2022-07-25T04:22:08.603Z,57.11
2022-07-25T04:24:35.394Z,56.70
2022-07-25T04:27:02.028Z,56.97
2022-07-25T04:29:29.205Z,57.11
2022-07-25T04:31:55.906Z,57.70
2022-07-25T04:34:22.585Z,57.00
2022-07-25T04:36:49.241Z,56.59
2022-07-25T04:39:15.873Z,57.13
2022-07-25T04:41:42.559Z,56.67
2022-07-25T04:44:09.650Z,56.83
2022-07-25T04:46:36.562Z,56.56
2022-07-25T04:49:03.341Z,56.51
2022-07-25T04:51:30.080Z,55.87
2022-07-25T04:53:56.779Z,56.76
2022-07-25T04:56:23.408Z,57.37
2022-07-25T04:58:50.032Z,56.58
2022-07-25T05:01:16.773Z,56.88
2022-07-25T05:03:50.632Z,56.57
2022-07-25T05:06:19.637Z,56.44
2022-07-25T05:08:46.792Z,55.86
2022-07-25T05:11:13.431Z,56.41
2022-07-25T05:13:40.103Z,56.90
2022-07-25T05:16:07.093Z,56.92
2022-07-25T05:18:34.771Z,56.85
2022-07-25T05:21:01.650Z,56.55
2022-07-25T05:23:28.268Z,56.38
2022-07-25T05:25:55.336Z,56.63
2022-07-25T05:28:21.978Z,56.65
2022-07-25T05:30:48.634Z,56.66
2022-07-25T05:33:15.410Z,56.90
2022-07-25T05:35:42.196Z,56.82
2022-07-25T05:38:08.833Z,57.01
2022-07-25T05:40:35.475Z,58.73
2022-07-25T05:43:03.585Z,57.91
2022-07-25T05:45:31.377Z,57.59
2022-07-25T05:47:58.014Z,57.31
2022-07-25T05:50:24.721Z,57.59
2022-07-25T05:52:51.731Z,57.28
2022-07-25T05:55:18.704Z,58.16
2022-07-25T05:57:45.449Z,57.31
2022-07-25T06:00:12.607Z,59.34
2022-07-25T06:02:39.521Z,60.18
2022-07-25T06:05:06.614Z,60.61
2022-07-25T06:07:33.279Z,60.34
2022-07-25T06:09:59.920Z,58.74
2022-07-25T06:12:26.636Z,57.53
2022-07-25T06:14:53.524Z,57.83
2022-07-25T06:17:20.233Z,57.46
2022-07-25T06:19:46.886Z,57.50
2022-07-25T06:22:14.577Z,56.84
2022-07-25T06:24:41.791Z,58.99
2022-07-25T06:27:09.049Z,57.69
2022-07-25T06:29:35.813Z,56.81
2022-07-25T06:32:02.755Z,56.42
2022-07-25T06:34:29.730Z,58.07
2022-07-25T06:36:57.846Z,58.46
2022-07-25T06:39:25.583Z,56.63
2022-07-25T06:41:52.591Z,55.26
2022-07-25T06:44:19.310Z,55.63
2022-07-25T06:46:46.063Z,54.27
2022-07-25T06:49:12.837Z,55.87
2022-07-25T06:51:39.580Z,55.25
2022-07-25T06:54:06.591Z,54.86
2022-07-25T06:56:33.560Z,55.63
2022-07-25T06:59:00.618Z,54.68
2022-07-25T07:01:27.901Z,53.83
2022-07-25T07:03:54.989Z,53.92
2022-07-25T07:06:21.759Z,52.97
2022-07-25T07:08:48.491Z,52.67
2022-07-25T07:11:16.765Z,52.59
2022-07-25T07:13:43.534Z,52.01
2022-07-25T07:16:10.871Z,51.58
2022-07-25T07:18:38.148Z,51.04
2022-07-25T07:21:05.722Z,52.53
2022-07-25T07:23:32.941Z,50.80
2022-07-25T07:26:00.193Z,51.17
2022-07-25T07:28:26.881Z,51.95
2022-07-25T07:33:40.336Z,51.92
2022-07-25T07:36:07.241Z,51.89
2022-07-25T07:38:34.570Z,51.30
2022-07-25T07:41:01.267Z,51.55
2022-07-25T07:43:30.493Z,51.47
2022-07-25T07:46:01.410Z,51.95
2022-07-25T07:48:29.879Z,52.17
2022-07-25T07:50:57.143Z,52.20
2022-07-25T07:53:43.755Z,51.73
2022-07-25T07:56:10.571Z,50.46
2022-07-25T07:58:37.218Z,51.37
2022-07-25T08:01:05.353Z,50.92
2022-07-25T08:03:32.432Z,52.00
2022-07-25T08:05:59.581Z,51.58
2022-07-25T08:08:30.901Z,50.75
2022-07-25T08:10:59.087Z,52.97
2022-07-25T08:13:31.321Z,51.66
2022-07-25T08:16:01.076Z,51.27
2022-07-25T08:18:32.664Z,50.62
2022-07-25T08:21:03.082Z,51.43
2022-07-25T08:23:31.928Z,50.07
2022-07-25T08:25:59.494Z,50.36
2022-07-25T08:28:26.562Z,50.36
2022-07-25T08:30:53.676Z,48.83
2022-07-25T08:33:20.701Z,47.77
2022-07-25T08:35:49.720Z,47.25
2022-07-25T08:38:18.228Z,48.60
2022-07-25T08:40:45.114Z,47.41
2022-07-25T08:43:13.828Z,47.12
2022-07-25T08:45:46.005Z,47.49
2022-07-25T08:48:13.287Z,46.42
2022-07-25T08:50:40.520Z,47.88
2022-07-25T08:55:53.818Z,46.39
2022-07-25T08:58:20.742Z,44.86
2022-07-25T09:00:47.472Z,45.86
2022-07-25T09:03:14.208Z,44.79
2022-07-25T09:05:41.599Z,45.31
2022-07-25T09:08:11.234Z,45.86
2022-07-25T09:10:39.357Z,44.95
2022-07-25T09:13:13.903Z,45.54
2022-07-25T09:15:50.219Z,47.68
2022-07-25T09:18:19.518Z,47.56
2022-07-25T09:20:54.804Z,47.02
2022-07-25T09:23:28.985Z,45.50
2022-07-25T09:26:06.821Z,43.59
2022-07-25T09:28:46.618Z,43.92
2022-07-25T09:31:14.686Z,45.48
2022-07-25T09:34:01.614Z,44.05
2022-07-25T09:36:28.249Z,43.58
2022-07-25T09:39:05.681Z,42.16
2022-07-25T09:41:40.586Z,43.86
2022-07-25T09:44:18.034Z,46.62
2022-07-25T09:46:45.183Z,45.85
2022-07-25T09:49:14.723Z,46.45
2022-07-25T09:51:44.484Z,45.98
2022-07-25T09:54:11.748Z,45.29
2022-07-25T09:56:38.591Z,45.28
2022-07-25T09:59:06.060Z,44.19
2022-07-25T10:01:48.479Z,44.58
2022-07-25T10:04:21.768Z,44.77
2022-07-25T10:07:14.453Z,42.71
2022-07-25T10:09:54.513Z,40.71
2022-07-25T10:12:23.296Z,41.36
2022-07-25T10:15:11.773Z,42.41
2022-07-25T10:17:40.644Z,42.32
2022-07-25T10:20:10.156Z,42.54
2022-07-25T10:22:59.800Z,43.48
2022-07-25T10:25:27.050Z,40.63
2022-07-25T10:28:03.730Z,40.36
2022-07-25T10:30:38.579Z,41.25
2022-07-25T10:33:18.121Z,41.43
2022-07-25T10:35:45.622Z,41.88
2022-07-25T10:38:12.514Z,41.54
2022-07-25T10:40:46.614Z,40.57
2022-07-25T10:43:25.586Z,40.44
2022-07-25T10:45:53.320Z,41.36
2022-07-25T10:48:24.378Z,38.58
2022-07-25T10:50:59.184Z,39.86
2022-07-25T10:53:32.738Z,40.82
2022-07-25T10:56:06.349Z,40.48
2022-07-25T10:58:53.055Z,39.89
2022-07-25T11:01:26.989Z,40.96
2022-07-25T11:03:56.375Z,39.62
2022-07-25T11:06:41.069Z,38.10
2022-07-25T11:09:18.547Z,39.86
2022-07-25T11:11:51.380Z,39.37
2022-07-25T11:14:25.558Z,37.01
2022-07-25T11:16:54.170Z,37.74
2022-07-25T11:19:28.728Z,38.11
2022-07-25T11:21:57.828Z,37.16
2022-07-25T11:24:40.341Z,35.90
2022-07-25T11:27:12.727Z,36.64
2022-07-25T11:29:40.628Z,36.14
2022-07-25T11:32:12.076Z,36.15
2022-07-25T11:34:42.365Z,35.23
2022-07-25T11:37:10.705Z,35.75
2022-07-25T11:39:40.109Z,35.35
2022-07-25T11:42:10.969Z,35.43
2022-07-25T11:44:47.811Z,36.19
2022-07-25T11:47:28.502Z,34.45
2022-07-25T11:49:58.232Z,36.68
2022-07-25T11:52:33.381Z,33.66
2022-07-25T11:55:01.130Z,33.25
2022-07-25T11:57:30.837Z,31.38
2022-07-25T12:00:00.498Z,31.08
2022-07-25T12:02:36.797Z,29.89
2022-07-25T12:05:07.311Z,32.55
2022-07-25T12:07:54.886Z,28.57
2022-07-25T12:10:35.476Z,24.93
2022-07-25T12:13:04.138Z,22.70
2022-07-25T12:15:33.314Z,22.38
2022-07-25T12:18:00.272Z,22.78
2022-07-25T12:20:29.270Z,24.29
2022-07-25T12:23:01.084Z,24.37
2022-07-25T12:25:30.980Z,23.08
2022-07-25T12:27:59.481Z,23.35
2022-07-25T12:30:27.992Z,23.65
2022-07-25T12:32:55.340Z,23.00
2022-07-25T12:35:22.617Z,25.19
2022-07-25T12:37:49.698Z,24.90
2022-07-25T12:40:18.144Z,23.94
2022-07-25T12:42:45.106Z,23.05
2022-07-25T12:45:13.004Z,22.46
2022-07-25T12:47:39.786Z,23.50
2022-07-25T12:50:07.257Z,23.98
2022-07-25T12:52:34.005Z,23.64
2022-07-25T12:55:00.845Z,24.18
2022-07-25T12:57:27.862Z,23.23
2022-07-25T12:59:54.498Z,24.04
2022-07-25T13:02:21.418Z,23.47
2022-07-25T13:04:49.082Z,22.64
2022-07-25T13:07:16.201Z,23.30
2022-07-25T13:09:43.096Z,23.85
2022-07-25T13:12:13.482Z,22.94
2022-07-25T13:14:42.914Z,23.23
2022-07-25T13:17:09.582Z,23.12
2022-07-25T13:19:36.474Z,24.63
2022-07-25T13:22:03.225Z,23.45
2022-07-25T13:24:29.957Z,24.00
2022-07-25T13:26:56.701Z,22.61
2022-07-25T13:29:23.353Z,23.91
2022-07-25T13:31:50.764Z,23.00
2022-07-25T13:34:17.457Z,22.05
2022-07-25T13:36:44.142Z,22.34
2022-07-25T13:39:11.219Z,22.73
2022-07-25T13:41:37.958Z,24.56
2022-07-25T13:44:04.825Z,23.07
2022-07-25T13:46:32.336Z,23.87
2022-07-25T13:48:59.083Z,23.84
2022-07-25T13:51:26.062Z,24.77
2022-07-25T13:53:52.741Z,25.48
2022-07-25T13:56:19.383Z,25.27
2022-07-25T13:58:48.006Z,26.13
2022-07-25T14:01:15.083Z,25.18
2022-07-25T14:03:41.785Z,24.83
2022-07-25T14:06:11.294Z,24.73
2022-07-25T14:08:40.382Z,26.48
2022-07-25T14:11:08.435Z,25.67
2022-07-25T14:13:36.236Z,25.57
2022-07-25T14:16:03.392Z,25.88
2022-07-25T14:18:31.848Z,24.83
2022-07-25T14:20:59.660Z,24.70
2022-07-25T14:23:29.876Z,24.92
2022-07-25T14:25:58.595Z,24.79
2022-07-25T14:28:25.881Z,25.04
2022-07-25T14:30:52.625Z,24.31
2022-07-25T14:33:19.262Z,25.27
2022-07-25T14:35:45.916Z,25.00
2022-07-25T14:38:12.825Z,25.37
2022-07-25T14:40:41.510Z,24.63
2022-07-25T14:43:08.588Z,23.93
2022-07-25T14:45:37.107Z,24.54
2022-07-25T14:48:06.330Z,23.23
2022-07-25T14:50:33.010Z,21.99
2022-07-25T14:52:59.817Z,22.07
2022-07-25T14:55:27.025Z,21.42
2022-07-25T14:57:53.737Z,21.35
2022-07-25T15:00:20.608Z,21.27
2022-07-25T15:02:48.119Z,21.27
2022-07-25T15:05:14.925Z,22.99
2022-07-25T15:07:41.599Z,20.85
2022-07-25T15:10:08.685Z,21.97
2022-07-25T15:12:35.369Z,20.98
2022-07-25T15:15:02.213Z,20.70
2022-07-25T15:17:29.158Z,21.56
2022-07-25T15:19:55.860Z,20.77
2022-07-25T15:22:22.489Z,22.77
2022-07-25T15:25:29.804Z,23.31
2022-07-25T15:27:37.327Z,24.19
2022-07-25T15:30:06.097Z,24.40
2022-07-25T15:32:33.012Z,24.07
2022-07-25T15:34:59.660Z,24.44
2022-07-25T15:37:26.276Z,22.90
2022-07-25T15:39:52.911Z,22.71
2022-07-25T15:42:19.553Z,22.87
2022-07-25T15:44:46.189Z,22.28
2022-07-25T15:47:12.959Z,22.42
2022-07-25T15:49:39.716Z,21.65
2022-07-25T15:52:06.501Z,21.95
2022-07-25T15:54:33.142Z,22.12
2022-07-25T15:57:00.347Z,22.44
2022-07-25T15:59:27.076Z,22.21
2022-07-25T16:01:53.722Z,22.54
2022-07-25T16:04:20.357Z,22.14
2022-07-25T16:06:47.072Z,23.30
2022-07-25T16:09:14.811Z,22.80
2022-07-25T16:11:41.469Z,23.08
2022-07-25T16:14:09.082Z,24.57
2022-07-25T16:16:36.626Z,24.57
2022-07-25T16:19:04.353Z,23.43
2022-07-25T16:21:31.172Z,24.31
2022-07-25T16:23:58.018Z,23.96
2022-07-25T16:26:24.729Z,24.62
2022-07-25T16:28:54.042Z,24.54
2022-07-25T16:31:24.325Z,25.48
2022-07-25T16:33:50.986Z,23.24
2022-07-25T16:36:17.752Z,25.11
2022-07-25T16:38:46.697Z,24.09
2022-07-25T16:41:13.456Z,25.34
2022-07-25T16:43:40.092Z,26.94
2022-07-25T16:46:07.920Z,26.83
2022-07-25T16:48:34.713Z,26.51
2022-07-25T16:51:01.568Z,27.86
2022-07-25T16:53:28.345Z,26.45
2022-07-25T16:55:55.039Z,27.06
2022-07-25T16:58:21.634Z,27.22
2022-07-25T17:00:48.262Z,27.35
2022-07-25T17:03:15.270Z,28.04
2022-07-25T17:05:42.026Z,27.42
2022-07-25T17:08:08.649Z,27.12
2022-07-25T17:10:35.344Z,27.55
2022-07-25T17:13:01.978Z,27.74
2022-07-25T17:15:28.658Z,26.89
2022-07-25T17:17:55.402Z,26.87
2022-07-25T17:20:22.122Z,28.35
2022-07-25T17:22:48.772Z,29.95
2022-07-25T17:25:15.468Z,30.27
2022-07-25T17:27:42.186Z,29.85
2022-07-25T17:30:09.487Z,30.44
2022-07-25T17:32:36.204Z,30.19
2022-07-25T17:35:02.874Z,30.22
2022-07-25T17:37:29.549Z,30.25
2022-07-25T17:39:56.335Z,30.70
2022-07-25T17:42:23.647Z,31.29
2022-07-25T17:44:53.469Z,31.50
2022-07-25T17:47:20.350Z,30.86
2022-07-25T17:49:47.149Z,30.49
2022-07-25T17:52:15.603Z,31.52
2022-07-25T17:54:42.890Z,31.50
2022-07-25T17:57:10.315Z,31.75
2022-07-25T17:59:36.964Z,31.79
2022-07-25T18:02:04.021Z,32.38
2022-07-25T18:04:30.766Z,31.88
2022-07-25T18:06:58.122Z,32.05
2022-07-25T18:09:24.738Z,32.71
2022-07-25T18:11:51.496Z,33.13
2022-07-25T18:14:18.170Z,32.51
2022-07-25T18:16:45.591Z,32.35
2022-07-25T18:19:12.974Z,32.71
2022-07-25T18:21:39.663Z,32.86
2022-07-25T18:24:07.129Z,32.96
2022-07-25T18:26:34.998Z,32.40
2022-07-25T18:29:01.726Z,33.08
2022-07-25T18:31:28.604Z,33.51
2022-07-25T18:33:55.292Z,33.49
2022-07-25T18:36:22.061Z,33.55
2022-07-25T18:38:48.899Z,33.62
2022-07-25T18:41:31.000Z,33.74
2022-07-25T18:43:57.750Z,33.99
2022-07-25T18:46:24.742Z,34.58
2022-07-25T18:48:51.836Z,34.77
2022-07-25T18:51:19.146Z,34.27
2022-07-25T18:53:48.282Z,34.13
2022-07-25T18:56:16.194Z,34.20
2022-07-25T18:58:43.499Z,34.52
2022-07-25T19:01:10.590Z,34.33
2022-07-25T19:03:37.677Z,34.65
2022-07-25T19:06:05.000Z,35.92
2022-07-25T19:08:32.725Z,35.89
2022-07-25T19:10:59.687Z,36.35
2022-07-25T19:13:48.274Z,36.15
2022-07-25T19:16:15.470Z,36.44
2022-07-25T19:18:42.750Z,36.47
2022-07-25T19:21:09.432Z,35.88
2022-07-25T19:23:36.101Z,36.62
2022-07-25T19:26:03.491Z,36.84
2022-07-25T19:28:30.204Z,37.16
2022-07-25T19:30:57.426Z,37.40
2022-07-25T19:33:24.486Z,37.36
2022-07-25T19:35:52.499Z,37.41
2022-07-25T19:38:19.593Z,37.12
2022-07-25T19:40:46.418Z,37.23
2022-07-25T19:43:13.133Z,37.92
2022-07-25T19:45:39.884Z,37.97
2022-07-25T19:48:07.099Z,38.37
2022-07-25T19:50:34.071Z,39.16
2022-07-25T19:53:01.601Z,38.46
2022-07-25T19:55:28.489Z,38.49
2022-07-25T19:57:55.214Z,38.58
2022-07-25T20:00:22.406Z,38.85
2022-07-25T20:02:49.363Z,38.69
2022-07-25T20:05:17.443Z,40.28
2022-07-25T20:07:44.129Z,38.84
2022-07-25T20:10:10.821Z,38.75
2022-07-25T20:12:38.285Z,40.16
2022-07-25T20:15:05.599Z,40.40
2022-07-25T20:17:32.275Z,39.64
2022-07-25T20:19:59.187Z,39.67
2022-07-25T20:22:26.270Z,39.89
2022-07-25T20:24:52.937Z,40.17
2022-07-25T20:27:19.594Z,40.96
2022-07-25T20:29:47.048Z,41.08
2022-07-25T20:32:13.676Z,39.68
2022-07-25T20:34:40.404Z,40.83
2022-07-25T20:37:07.011Z,40.49
2022-07-25T20:39:33.655Z,40.72
2022-07-25T20:42:01.360Z,41.01
2022-07-25T20:44:28.310Z,40.99
2022-07-25T20:46:55.592Z,42.20
2022-07-25T20:49:23.777Z,42.55
2022-07-25T20:51:54.412Z,40.76
2022-07-25T20:54:21.309Z,42.27
2022-07-25T20:56:48.193Z,40.37
2022-07-25T20:59:14.821Z,39.93
2022-07-25T21:01:41.852Z,41.97
2022-07-25T21:04:08.622Z,41.57
2022-07-25T21:06:35.629Z,40.78
2022-07-25T21:09:04.503Z,40.34
2022-07-25T21:11:31.231Z,41.09
2022-07-25T21:13:57.915Z,41.00
2022-07-25T21:16:27.361Z,42.10
2022-07-25T21:18:56.012Z,42.88
2022-07-25T21:21:23.621Z,45.69
2022-07-25T21:23:50.522Z,46.54
2022-07-25T21:26:17.617Z,45.69
2022-07-25T21:28:44.895Z,47.32
2022-07-25T21:31:12.170Z,47.81
2022-07-25T21:33:39.339Z,49.63
2022-07-25T21:36:06.290Z,48.46
2022-07-25T21:38:35.024Z,47.79
2022-07-25T21:41:02.312Z,43.39
2022-07-25T21:43:28.996Z,41.53
2022-07-25T21:45:55.670Z,43.01
2022-07-25T21:48:42.990Z,44.08
2022-07-25T21:51:10.477Z,45.58
2022-07-25T21:53:46.219Z,48.98
2022-07-25T21:56:13.860Z,52.13
2022-07-25T21:58:40.527Z,55.15
2022-07-25T22:01:07.409Z,56.54
2022-07-25T22:03:34.144Z,58.31
2022-07-25T22:06:00.921Z,59.00
2022-07-25T22:08:27.539Z,60.39
2022-07-25T22:10:54.308Z,61.56
2022-07-25T22:13:21.539Z,61.18
2022-07-25T22:15:48.251Z,62.45
2022-07-25T22:18:14.885Z,61.89
2022-07-25T22:20:42.942Z,62.34
2022-07-25T22:23:09.607Z,62.71
2022-07-25T22:25:36.253Z,62.63
2022-07-25T22:28:02.904Z,64.87
2022-07-25T22:30:29.584Z,66.40
2022-07-25T22:32:56.231Z,65.12
2022-07-25T22:35:22.950Z,65.78
2022-07-25T22:37:49.614Z,64.36
2022-07-25T22:40:16.273Z,64.03
2022-07-25T22:42:42.885Z,66.71
2022-07-25T22:45:10.167Z,67.46
2022-07-25T22:47:36.917Z,68.90
2022-07-25T22:50:05.401Z,68.48
2022-07-25T22:52:32.118Z,68.14
2022-07-25T22:54:58.717Z,68.66
2022-07-25T22:57:25.845Z,67.92
2022-07-25T22:59:52.496Z,68.14
2022-07-25T23:02:19.177Z,69.44
2022-07-25T23:04:45.778Z,69.58
2022-07-25T23:07:12.440Z,70.50
2022-07-25T23:09:39.065Z,71.02
2022-07-25T23:12:05.847Z,69.93
2022-07-25T23:14:32.804Z,68.26
2022-07-25T23:17:17.815Z,68.13
2022-07-25T23:19:45.642Z,68.89
2022-07-25T23:22:12.740Z,69.25
2022-07-25T23:24:39.620Z,68.56
2022-07-25T23:27:07.066Z,67.28
2022-07-25T23:29:33.748Z,67.74
2022-07-25T23:32:00.745Z,66.99
2022-07-25T23:34:27.622Z,64.84
2022-07-25T23:36:54.269Z,65.20
2022-07-25T23:39:20.883Z,65.09
2022-07-25T23:41:47.519Z,65.22
2022-07-25T23:44:14.250Z,64.75
2022-07-25T23:46:41.587Z,63.57
2022-07-25T23:49:11.740Z,62.79
2022-07-25T23:51:39.058Z,64.29
2022-07-25T23:54:05.892Z,66.23
2022-07-25T23:56:32.562Z,67.82
2022-07-25T23:58:59.266Z,68.00
